< Typhoon 201221 2012 Season Typhoon 201223 >
Typhoon 201222 (MARIA)
General InformationTrack Information on Google MapsDetailed Wind InformationAccess Analytics MapList of All Images || NewsDisaster Info.WeblogTrackbackTyphoon FrontTwiphoonTyphoon Now!Typhoon ImaginationResourceGoogle EarthGE AnimationAtom FeedGeoJSON
Detalied Best Track (Time Zone = UTC)
Year Month Day Hour Lat. Long. Pressure (hPa) Wind (kt) Class Image Chart
2012 10 12 18 16.1 147.2 1010 0 2 Image Chart
2012 10 13 00 16.2 146.8 1008 0 2 Image Chart
2012 10 13 06 16.3 146.1 1008 0 2 Image Chart
2012 10 13 12 16.5 145.5 1008 0 2 Image Chart
2012 10 13 18 16.9 145.2 1008 0 2 Image Chart
2012 10 14 00 17.4 144.6 1006 0 2 Image Chart
2012 10 14 06 17.5 143.7 1002 35 3 Image Chart
2012 10 14 12 17.9 143.1 998 40 3 Image Chart
2012 10 14 18 18.6 142.4 994 45 3 Image Chart
2012 10 15 00 19.3 141.7 990 50 4 Image Chart
2012 10 15 06 20.7 141.2 990 50 4 Image Chart
2012 10 15 12 22.7 141.1 990 50 4 Image Chart
2012 10 15 18 24.3 140.5 990 50 4 Image Chart
2012 10 16 00 25.4 140.7 994 45 3 Image Chart
2012 10 16 06 26.7 140.8 994 45 3 Image Chart
2012 10 16 12 27.4 141.1 996 45 3 Image Chart
2012 10 16 18 28.3 142.2 996 45 3 Image Chart
2012 10 17 00 28.8 143.5 996 45 3 Image Chart
2012 10 17 06 29.5 144.7 996 45 3 Image Chart
2012 10 17 12 30.1 146.4 996 45 3 Image Chart
2012 10 17 18 31.0 148.5 996 45 3 Image Chart
2012 10 18 00 31.4 150.5 996 45 3 Image Chart
2012 10 18 06 32.0 152.8 998 45 3 Image Chart
2012 10 18 12 31.9 154.9 1000 40 3 Image Chart
2012 10 18 18 31.7 156.2 1004 35 3 Image Chart
2012 10 19 00 31.5 157.4 1006 0 2 Image Chart
2012 10 19 06 31.2 158.6 1008 0 2 Image Chart
2012 10 19 12 31.2 159.6 1010 0 2 Image Chart
2012 10 19 18 31.7 160.4 1010 0 2 Image Chart
2012 10 20 00 32.2 161.1 1010 0 2 Image Chart
Japan Meteorological Agency Best Track Data | Correction Date : 2012-11-19
< Typhoon 201221 2012 Season Typhoon 201223 >

Help